Time;durP1;ratioP1;P1;durP2;ratioP2;P2;SDS_P1;SDS_P2;PMS_P1;PMS_P2;Temp;Humidity;BMP_temperature;BMP_pressure;BME280_temperature;BME280_humidity;BME280_pressure;Samples;Min_cycle;Max_cycle;Signal;HPM_P1;HPM_P2
2023/06/15 00:01:42;;;;;;;9.80;9.10;;;21.30;48.00;;;;;;4995044;28;20722;-87
2023/06/15 00:04:07;;;;;;;10.27;9.57;;;21.20;46.50;;;;;;5001085;28;20243;-86
2023/06/15 00:06:33;;;;;;;9.98;9.20;;;21.00;47.20;;;;;;4999957;28;20185;-87
2023/06/15 00:08:59;;;;;;;9.65;9.02;;;21.10;47.10;;;;;;4985504;28;20237;-87
2023/06/15 00:11:25;;;;;;;9.50;8.90;;;21.00;47.80;;;;;;4983439;28;20222;-87
2023/06/15 00:13:51;;;;;;;9.20;8.70;;;21.10;47.90;;;;;;4989172;28;20189;-87
2023/06/15 00:16:18;;;;;;;9.73;9.13;;;21.10;47.00;;;;;;5004278;28;20197;-87
2023/06/15 00:18:48;;;;;;;9.68;9.13;;;21.10;47.60;;;;;;5003673;28;20184;-86
2023/06/15 00:21:17;;;;;;;10.05;9.25;;;21.00;46.00;;;;;;5012484;28;20193;-86
2023/06/15 00:23:45;;;;;;;9.05;8.55;;;20.90;46.20;;;;;;5004948;28;20240;-87
2023/06/15 00:26:11;;;;;;;9.48;8.82;;;20.90;48.40;;;;;;5004629;28;20341;-87
2023/06/15 00:28:36;;;;;;;9.35;8.75;;;20.90;46.60;;;;;;5002930;28;20186;-87
2023/06/15 00:31:02;;;;;;;9.30;8.55;;;20.90;46.90;;;;;;5001301;28;20205;-87
2023/06/15 00:33:28;;;;;;;9.25;8.55;;;20.70;46.30;;;;;;5001421;28;20180;-86
2023/06/15 00:35:53;;;;;;;9.02;8.52;;;20.70;48.30;;;;;;5001135;28;20191;-86
2023/06/15 00:38:19;;;;;;;9.10;8.48;;;20.60;46.30;;;;;;5000836;28;20176;-88
2023/06/15 00:40:45;;;;;;;8.23;7.80;;;20.70;46.50;;;;;;5002568;28;20195;-86
2023/06/15 00:43:11;;;;;;;8.88;8.32;;;20.70;46.90;;;;;;5000332;28;20211;-87
2023/06/15 00:45:37;;;;;;;8.45;7.95;;;20.50;45.80;;;;;;5000589;28;20263;-87
2023/06/15 00:48:03;;;;;;;8.88;7.97;;;20.50;45.90;;;;;;5002181;28;20551;-86
2023/06/15 00:50:30;;;;;;;8.00;7.40;;;20.40;46.20;;;;;;5001284;28;20652;-86
2023/06/15 00:53:00;;;;;;;7.75;7.25;;;20.30;46.30;;;;;;5000121;28;20222;-86
2023/06/15 00:55:27;;;;;;;7.72;7.25;;;20.10;46.60;;;;;;4994733;28;20835;-87
2023/06/15 00:57:54;;;;;;;8.32;7.72;;;20.10;46.60;;;;;;5003297;28;20256;-87
2023/06/15 01:00:20;;;;;;;8.00;7.32;;;20.10;46.40;;;;;;5001765;28;20197;-87
2023/06/15 01:02:48;;;;;;;7.80;7.22;;;20.00;46.60;;;;;;5001525;28;20698;-87
2023/06/15 01:05:17;;;;;;;8.00;7.40;;;20.00;46.80;;;;;;5002559;28;20177;-86
2023/06/15 01:07:47;;;;;;;7.38;6.85;;;19.90;46.60;;;;;;4998751;28;20670;-86
2023/06/15 01:10:17;;;;;;;7.50;7.10;;;19.90;46.80;;;;;;4984871;28;20188;-86
2023/06/15 01:12:45;;;;;;;7.18;6.68;;;20.00;47.10;;;;;;5002722;28;20491;-88
2023/06/15 01:15:14;;;;;;;7.88;7.35;;;20.10;46.90;;;;;;5002666;28;20198;-86
2023/06/15 01:17:44;;;;;;;7.60;7.10;;;19.90;48.00;;;;;;5002152;28;20177;-86
2023/06/15 01:20:17;;;;;;;7.13;6.63;;;19.80;48.70;;;;;;5000578;28;20253;-86
2023/06/15 01:22:59;;;;;;;6.82;6.43;;;19.80;48.80;;;;;;5000130;28;20285;-87
2023/06/15 01:25:37;;;;;;;7.25;6.75;;;19.90;48.80;;;;;;4998900;28;20524;-85
2023/06/15 01:28:05;;;;;;;7.45;6.95;;;20.10;48.70;;;;;;4999548;28;20183;-87
2023/06/15 01:30:37;;;;;;;7.47;6.90;;;20.10;47.00;;;;;;5001778;28;20195;-87
2023/06/15 01:33:04;;;;;;;7.63;6.93;;;20.10;48.00;;;;;;4999689;28;20752;-85
2023/06/15 01:35:30;;;;;;;6.90;6.40;;;20.10;47.00;;;;;;5000332;28;20272;-89
2023/06/15 01:37:55;;;;;;;8.35;7.43;;;20.10;47.30;;;;;;5000568;28;20174;-87
2023/06/15 01:40:21;;;;;;;8.20;7.60;;;20.30;47.40;;;;;;5001164;28;20588;-85
2023/06/15 01:42:49;;;;;;;7.50;7.05;;;20.20;45.80;;;;;;5000205;28;20198;-86
2023/06/15 01:45:16;;;;;;;7.95;7.30;;;20.20;46.20;;;;;;4999696;28;20183;-87
2023/06/15 01:47:43;;;;;;;7.70;7.20;;;20.20;45.80;;;;;;5002386;28;20190;-87
2023/06/15 01:50:10;;;;;;;8.43;7.75;;;20.30;46.30;;;;;;5001483;28;20249;-85
2023/06/15 01:52:36;;;;;;;7.80;7.30;;;20.20;46.40;;;;;;5001493;28;20237;-86
2023/06/15 01:55:02;;;;;;;7.60;7.10;;;20.10;46.10;;;;;;5001434;28;20172;-87
2023/06/15 01:57:28;;;;;;;8.15;7.55;;;20.10;46.20;;;;;;5001740;28;20753;-87
2023/06/15 01:59:54;;;;;;;8.40;7.80;;;20.10;46.20;;;;;;5000901;28;20175;-86
2023/06/15 02:02:21;;;;;;;7.75;7.15;;;20.10;46.70;;;;;;5000545;28;20532;-86
2023/06/15 02:04:46;;;;;;;8.18;7.57;;;20.10;47.50;;;;;;4998849;28;20852;-87
2023/06/15 02:07:12;;;;;;;7.57;7.18;;;20.10;47.50;;;;;;4999902;28;20197;-85
2023/06/15 02:09:37;;;;;;;7.65;7.15;;;19.90;48.00;;;;;;4996619;28;20186;-86
2023/06/15 02:12:03;;;;;;;7.95;7.45;;;19.90;47.70;;;;;;5002207;28;20214;-86
2023/06/15 02:14:29;;;;;;;7.35;6.95;;;19.90;47.40;;;;;;5001917;28;20271;-87
2023/06/15 02:16:56;;;;;;;7.07;6.68;;;20.00;47.50;;;;;;5002065;28;20195;-87
2023/06/15 02:19:22;;;;;;;7.60;7.05;;;20.00;48.50;;;;;;5002490;28;20191;-87
2023/06/15 02:21:51;;;;;;;7.45;6.85;;;19.90;48.50;;;;;;4999621;28;20221;-87
2023/06/15 02:24:17;;;;;;;7.68;7.28;;;19.90;48.60;;;;;;4998522;28;20214;-87
2023/06/15 02:26:44;;;;;;;7.97;7.30;;;19.80;47.50;;;;;;4978326;28;20267;-86
2023/06/15 02:29:10;;;;;;;7.82;7.20;;;19.80;47.70;;;;;;4979197;28;20192;-86
2023/06/15 02:31:37;;;;;;;7.47;6.88;;;19.80;47.30;;;;;;4979763;28;20229;-86
2023/06/15 02:34:03;;;;;;;6.95;6.55;;;19.80;47.50;;;;;;4978970;28;20177;-85
2023/06/15 02:36:28;;;;;;;7.47;6.97;;;19.80;47.80;;;;;;4979637;28;20176;-86
2023/06/15 02:38:54;;;;;;;7.85;7.32;;;19.90;47.70;;;;;;4980473;28;20168;-86
2023/06/15 02:41:20;;;;;;;7.90;7.47;;;20.00;46.90;;;;;;4981715;28;20256;-86
2023/06/15 02:43:46;;;;;;;7.30;6.90;;;20.00;46.80;;;;;;4997486;28;20194;-86
2023/06/15 02:46:11;;;;;;;8.43;7.93;;;20.10;46.70;;;;;;4998306;28;20250;-86
2023/06/15 02:48:37;;;;;;;7.60;7.20;;;19.90;46.90;;;;;;4999137;28;20178;-86
2023/06/15 02:51:03;;;;;;;8.13;7.10;;;19.80;48.70;;;;;;5000259;28;20619;-87
2023/06/15 02:53:29;;;;;;;7.88;6.95;;;19.70;49.30;;;;;;5001127;28;20794;-86
2023/06/15 02:55:56;;;;;;;7.35;6.55;;;19.70;49.30;;;;;;5000677;28;20186;-85
2023/06/15 02:58:24;;;;;;;7.15;6.70;;;19.70;50.30;;;;;;5000312;28;20174;-86
2023/06/15 03:00:51;;;;;;;7.38;6.97;;;19.70;48.80;;;;;;5000956;28;20201;-86
2023/06/15 03:03:22;;;;;;;7.40;6.90;;;19.70;48.90;;;;;;5002651;28;20679;-86
2023/06/15 03:05:48;;;;;;;7.72;7.10;;;19.70;49.00;;;;;;5000892;28;20258;-87
2023/06/15 03:08:15;;;;;;;7.32;6.72;;;19.70;48.30;;;;;;4992983;28;20191;-87
2023/06/15 03:10:41;;;;;;;7.65;7.05;;;19.60;48.90;;;;;;4980020;28;20230;-86
2023/06/15 03:13:06;;;;;;;7.93;7.45;;;19.60;49.00;;;;;;4980451;28;20230;-86
2023/06/15 03:15:32;;;;;;;7.63;7.03;;;19.60;48.70;;;;;;4986695;28;20189;-86
2023/06/15 03:17:58;;;;;;;7.57;7.00;;;19.50;49.00;;;;;;4997204;28;20185;-87
2023/06/15 03:20:24;;;;;;;7.75;7.25;;;19.40;49.30;;;;;;4996366;28;20916;-86
2023/06/15 03:22:50;;;;;;;7.50;7.00;;;19.20;49.80;;;;;;4995752;28;20271;-87
2023/06/15 03:25:16;;;;;;;7.65;7.05;;;19.10;49.90;;;;;;4996658;28;20807;-86
2023/06/15 03:27:42;;;;;;;7.50;7.00;;;19.10;49.90;;;;;;4995866;28;20182;-86
2023/06/15 03:30:10;;;;;;;7.07;6.68;;;19.10;50.00;;;;;;4998420;28;20175;-86
2023/06/15 03:32:37;;;;;;;6.88;6.40;;;19.20;50.00;;;;;;5006690;28;20316;-87
2023/06/15 03:35:03;;;;;;;6.70;6.30;;;19.20;50.10;;;;;;4997410;28;20179;-87
2023/06/15 03:37:29;;;;;;;9.57;6.82;;;19.30;50.40;;;;;;4995824;28;20356;-85
2023/06/15 03:39:55;;;;;;;7.40;6.80;;;19.20;49.90;;;;;;4994623;28;20202;-85
2023/06/15 03:42:21;;;;;;;7.22;6.63;;;19.20;50.00;;;;;;4994477;28;20656;-86
2023/06/15 03:44:46;;;;;;;7.13;6.57;;;19.20;49.50;;;;;;4994253;28;20189;-86
2023/06/15 03:47:13;;;;;;;6.95;6.35;;;19.10;50.00;;;;;;4994183;28;20182;-87
2023/06/15 03:49:38;;;;;;;7.22;6.63;;;19.00;49.50;;;;;;4994857;28;20190;-88
2023/06/15 03:52:04;;;;;;;6.55;6.13;;;19.10;49.70;;;;;;4994770;28;20624;-87
2023/06/15 03:54:31;;;;;;;7.20;6.60;;;19.10;49.60;;;;;;4995788;28;20193;-85
2023/06/15 03:56:56;;;;;;;6.85;6.35;;;18.90;50.00;;;;;;4996125;28;20170;-87
2023/06/15 03:59:23;;;;;;;7.20;6.70;;;18.90;50.60;;;;;;4995830;28;20189;-86
2023/06/15 04:01:49;;;;;;;6.75;6.35;;;18.80;50.50;;;;;;4995887;28;20200;-86
2023/06/15 04:04:15;;;;;;;7.10;6.50;;;18.90;50.80;;;;;;4996373;28;20182;-85
2023/06/15 04:06:46;;;;;;;9.68;7.05;;;18.90;50.40;;;;;;4997774;28;20213;-88
2023/06/15 04:09:13;;;;;;;7.25;6.60;;;18.80;50.80;;;;;;4997781;28;20565;-86
2023/06/15 04:11:40;;;;;;;7.40;6.70;;;18.80;50.60;;;;;;4997267;28;20222;-86
2023/06/15 04:14:05;;;;;;;6.72;6.22;;;18.90;50.70;;;;;;4997555;28;20633;-86
2023/06/15 04:16:31;;;;;;;6.95;6.45;;;18.90;50.90;;;;;;4995854;28;20201;-86
2023/06/15 04:18:57;;;;;;;6.78;6.18;;;18.80;50.70;;;;;;4994410;28;20181;-86
2023/06/15 04:21:23;;;;;;;7.32;6.72;;;18.90;51.20;;;;;;4992701;28;20232;-87
2023/06/15 04:23:48;;;;;;;6.80;6.30;;;18.80;51.40;;;;;;4994151;28;20348;-85
2023/06/15 04:26:14;;;;;;;6.47;5.97;;;18.70;51.70;;;;;;4995354;28;20185;-85
2023/06/15 04:28:40;;;;;;;7.00;6.50;;;18.70;51.80;;;;;;4993816;28;20260;-86
2023/06/15 04:31:08;;;;;;;6.85;6.38;;;18.60;52.50;;;;;;4993945;28;20748;-84
2023/06/15 04:33:34;;;;;;;12.75;7.30;;;18.50;52.70;;;;;;4993937;28;20177;-85
2023/06/15 04:36:01;;;;;;;10.93;6.75;;;18.40;53.50;;;;;;4992084;28;20189;-84
2023/06/15 04:38:26;;;;;;;6.43;5.93;;;18.40;53.40;;;;;;4995441;28;20274;-84
2023/06/15 04:40:52;;;;;;;6.53;5.93;;;18.40;53.00;;;;;;4986900;28;20206;-85
2023/06/15 04:43:18;;;;;;;7.05;6.25;;;18.50;53.10;;;;;;4994902;28;20746;-85
2023/06/15 04:45:44;;;;;;;6.22;5.80;;;18.60;52.70;;;;;;4995189;28;20197;-86
2023/06/15 04:48:11;;;;;;;6.70;6.20;;;18.70;52.70;;;;;;4993925;28;20186;-85
2023/06/15 04:50:37;;;;;;;7.95;6.03;;;18.70;52.30;;;;;;4995245;28;20174;-85
2023/06/15 04:53:02;;;;;;;7.10;6.50;;;18.70;52.50;;;;;;4994760;28;20945;-85
2023/06/15 04:55:28;;;;;;;6.88;6.18;;;18.60;52.40;;;;;;4994240;28;20175;-85
2023/06/15 04:57:53;;;;;;;6.20;5.80;;;18.70;52.50;;;;;;4998519;28;20190;-84
2023/06/15 05:00:20;;;;;;;6.80;6.32;;;18.70;52.60;;;;;;5001904;28;20210;-83
2023/06/15 05:02:45;;;;;;;6.47;6.00;;;18.70;53.30;;;;;;5001640;28;20253;-84
2023/06/15 05:05:12;;;;;;;7.35;6.85;;;18.70;53.70;;;;;;4989284;28;20179;-84
2023/06/15 05:07:37;;;;;;;6.85;6.35;;;18.70;52.90;;;;;;4982062;28;20191;-83
2023/06/15 05:10:03;;;;;;;6.32;5.93;;;18.60;53.10;;;;;;4999794;28;20658;-83
2023/06/15 05:12:29;;;;;;;8.10;6.53;;;18.60;53.30;;;;;;4997678;28;20206;-83
2023/06/15 05:14:55;;;;;;;7.05;6.45;;;18.70;53.10;;;;;;4998087;28;20185;-83
2023/06/15 05:17:20;;;;;;;6.28;5.80;;;18.70;53.10;;;;;;4996577;28;20237;-83
2023/06/15 05:19:47;;;;;;;6.70;6.30;;;18.60;53.00;;;;;;5000252;28;20217;-83
2023/06/15 05:22:13;;;;;;;6.53;5.93;;;18.60;53.30;;;;;;5000675;28;20222;-84
2023/06/15 05:24:38;;;;;;;6.63;6.20;;;18.60;53.60;;;;;;4997187;28;20189;-84
2023/06/15 05:27:05;;;;;;;6.72;6.22;;;18.60;53.40;;;;;;4980130;28;20256;-84
2023/06/15 05:29:30;;;;;;;7.10;6.40;;;18.70;53.50;;;;;;4987091;28;20289;-83
2023/06/15 05:31:57;;;;;;;7.22;6.65;;;18.70;53.40;;;;;;4990935;28;20355;-82
2023/06/15 05:34:22;;;;;;;7.95;6.60;;;18.50;53.60;;;;;;4988560;28;20288;-83
2023/06/15 05:36:48;;;;;;;6.88;6.28;;;18.50;53.90;;;;;;4984938;28;21340;-84
2023/06/15 05:39:14;;;;;;;6.53;6.10;;;18.60;54.10;;;;;;4988860;28;20224;-84
2023/06/15 05:41:39;;;;;;;6.45;6.05;;;18.60;53.90;;;;;;4988883;28;20682;-84
2023/06/15 05:44:05;;;;;;;6.80;6.40;;;18.70;53.70;;;;;;4987372;28;20190;-82
2023/06/15 05:46:31;;;;;;;6.68;6.18;;;18.70;53.50;;;;;;4984903;28;20216;-82
2023/06/15 05:48:56;;;;;;;6.80;6.30;;;18.90;53.60;;;;;;4990607;28;20269;-84
2023/06/15 05:51:22;;;;;;;6.90;6.30;;;18.90;52.70;;;;;;4988799;28;20280;-84
2023/06/15 05:53:48;;;;;;;6.28;5.88;;;19.10;52.50;;;;;;4989959;28;20192;-84
2023/06/15 05:56:14;;;;;;;6.55;6.10;;;19.20;52.40;;;;;;4989720;28;20186;-83
2023/06/15 05:58:40;;;;;;;6.60;6.00;;;19.40;51.80;;;;;;4989528;28;20204;-83
2023/06/15 06:01:06;;;;;;;6.40;5.90;;;19.40;50.80;;;;;;4991815;28;20200;-82
2023/06/15 06:03:31;;;;;;;7.60;6.45;;;19.50;50.80;;;;;;4994544;28;20189;-84
2023/06/15 06:05:57;;;;;;;12.27;7.30;;;19.60;49.80;;;;;;4986251;28;20258;-83
2023/06/15 06:08:23;;;;;;;6.47;6.05;;;19.60;49.90;;;;;;4986941;28;20422;-83
2023/06/15 06:10:49;;;;;;;7.25;6.57;;;19.70;50.00;;;;;;4991392;28;20671;-83
2023/06/15 06:13:15;;;;;;;6.97;6.57;;;19.70;50.00;;;;;;4989657;28;20205;-84
2023/06/15 06:15:41;;;;;;;7.22;6.72;;;19.70;50.40;;;;;;4981817;28;20201;-83
2023/06/15 06:18:07;;;;;;;7.25;6.70;;;19.80;50.30;;;;;;4981106;28;20974;-83
2023/06/15 06:20:32;;;;;;;7.07;6.50;;;19.80;50.10;;;;;;4992788;28;20393;-85
2023/06/15 06:22:58;;;;;;;6.57;6.07;;;19.70;50.00;;;;;;4987010;28;20221;-85
2023/06/15 06:25:24;;;;;;;6.20;5.85;;;19.70;50.40;;;;;;4992096;28;20208;-85
2023/06/15 06:27:49;;;;;;;6.78;6.22;;;19.70;50.90;;;;;;4981423;28;20186;-84
2023/06/15 06:30:15;;;;;;;7.00;6.50;;;19.80;50.20;;;;;;4982728;28;20190;-82
2023/06/15 06:32:41;;;;;;;6.55;6.10;;;19.90;49.70;;;;;;4990437;28;21522;-83
2023/06/15 06:35:07;;;;;;;7.15;6.55;;;20.00;50.30;;;;;;4992676;28;20189;-83
2023/06/15 06:37:32;;;;;;;8.40;6.72;;;20.20;49.90;;;;;;4983841;28;20213;-84
2023/06/15 06:39:59;;;;;;;7.50;6.80;;;20.30;50.40;;;;;;4996689;28;20345;-82
2023/06/15 06:42:25;;;;;;;6.53;6.03;;;20.20;49.50;;;;;;4996997;28;20601;-84
2023/06/15 06:44:51;;;;;;;7.03;6.47;;;20.40;48.90;;;;;;4986299;28;20220;-84
2023/06/15 06:47:17;;;;;;;7.30;6.70;;;20.40;48.70;;;;;;4984504;28;20622;-85
2023/06/15 06:49:43;;;;;;;6.85;6.32;;;20.40;48.70;;;;;;4991533;28;20200;-84
2023/06/15 06:52:09;;;;;;;7.60;7.00;;;20.50;49.00;;;;;;4983162;28;20225;-85
2023/06/15 06:54:35;;;;;;;7.85;7.10;;;20.70;48.60;;;;;;4989836;28;21095;-86
2023/06/15 06:57:01;;;;;;;7.50;6.90;;;20.80;47.30;;;;;;4991365;28;20194;-85
2023/06/15 06:59:27;;;;;;;7.82;7.10;;;20.80;47.80;;;;;;4987346;28;20186;-88
2023/06/15 07:01:52;;;;;;;8.02;7.40;;;20.80;48.50;;;;;;4985469;28;20331;-86
2023/06/15 07:04:18;;;;;;;7.65;7.15;;;20.80;47.00;;;;;;4987965;28;20195;-85
2023/06/15 07:06:44;;;;;;;7.40;6.90;;;21.00;46.30;;;;;;4989372;28;20185;-86
2023/06/15 07:09:10;;;;;;;7.88;7.30;;;21.10;46.60;;;;;;4987446;28;21173;-85
2023/06/15 07:11:37;;;;;;;8.43;7.85;;;21.20;46.10;;;;;;4984973;28;20217;-86
2023/06/15 07:14:03;;;;;;;8.25;7.55;;;21.30;45.80;;;;;;4990077;28;20188;-86
2023/06/15 07:16:30;;;;;;;8.88;8.38;;;21.40;46.20;;;;;;4987519;28;20202;-88
2023/06/15 07:18:56;;;;;;;8.75;8.15;;;21.60;45.50;;;;;;4989460;28;20218;-86
2023/06/15 07:21:22;;;;;;;9.60;9.00;;;21.60;44.80;;;;;;4993292;28;20244;-86
2023/06/15 07:23:48;;;;;;;9.40;8.70;;;21.60;44.60;;;;;;4985154;28;20222;-88
2023/06/15 07:26:13;;;;;;;10.13;9.15;;;21.60;43.80;;;;;;4979369;28;20696;-85
2023/06/15 07:28:39;;;;;;;9.45;8.85;;;21.70;43.70;;;;;;4988982;28;20207;-85
2023/06/15 07:31:05;;;;;;;9.55;8.85;;;21.80;43.30;;;;;;4989880;28;20320;-86
2023/06/15 07:33:31;;;;;;;9.73;9.13;;;22.00;42.90;;;;;;4986971;28;20237;-85
2023/06/15 07:35:59;;;;;;;10.05;9.35;;;22.10;43.10;;;;;;4987545;28;20209;-87
2023/06/15 07:38:25;;;;;;;11.95;10.20;;;22.20;42.90;;;;;;4989897;28;20185;-86
2023/06/15 07:40:51;;;;;;;11.35;9.35;;;22.30;41.80;;;;;;4987815;28;20228;-84
2023/06/15 07:43:16;;;;;;;15.63;10.15;;;22.40;42.20;;;;;;4992974;28;20221;-86
2023/06/15 07:45:44;;;;;;;10.20;9.50;;;22.50;41.80;;;;;;4992939;28;20231;-85
2023/06/15 07:48:12;;;;;;;10.48;9.68;;;22.50;42.10;;;;;;4984621;28;20208;-86
2023/06/15 07:50:38;;;;;;;10.20;9.52;;;22.40;43.20;;;;;;4988623;28;20229;-85
2023/06/15 07:53:03;;;;;;;9.52;8.90;;;22.30;43.70;;;;;;4990826;28;20201;-85
2023/06/15 07:55:29;;;;;;;13.88;10.77;;;22.50;43.60;;;;;;4988482;28;20183;-86
2023/06/15 07:57:55;;;;;;;9.38;8.77;;;22.70;43.00;;;;;;4986589;28;20280;-86
2023/06/15 08:00:21;;;;;;;9.60;9.10;;;22.80;42.50;;;;;;4989586;28;20198;-88
2023/06/15 08:02:48;;;;;;;9.60;9.00;;;22.90;41.80;;;;;;4985202;28;20726;-85
2023/06/15 08:05:15;;;;;;;10.00;9.38;;;22.90;41.60;;;;;;4985290;28;20422;-86
2023/06/15 08:07:41;;;;;;;10.65;9.95;;;22.90;41.90;;;;;;4983097;28;20477;-85
2023/06/15 08:10:07;;;;;;;9.48;8.80;;;22.90;42.20;;;;;;4985122;28;20189;-85
2023/06/15 08:12:33;;;;;;;9.95;9.35;;;23.10;42.50;;;;;;4988647;28;20225;-86
2023/06/15 08:14:58;;;;;;;10.50;9.63;;;23.30;41.30;;;;;;4985465;28;20212;-85
2023/06/15 08:17:25;;;;;;;10.77;10.15;;;23.40;41.10;;;;;;4986035;28;20881;-86
2023/06/15 08:19:52;;;;;;;11.02;10.18;;;23.40;41.00;;;;;;4987029;28;20189;-86
2023/06/15 08:22:17;;;;;;;10.60;9.95;;;22.90;42.00;;;;;;5000387;28;20225;-87
2023/06/15 08:24:44;;;;;;;11.43;9.40;;;23.10;42.30;;;;;;4990466;28;20260;-86
2023/06/15 08:27:11;;;;;;;10.57;9.98;;;23.40;42.20;;;;;;4984623;28;20205;-85
2023/06/15 08:29:37;;;;;;;10.30;9.68;;;23.40;41.50;;;;;;4984539;28;20196;-85
2023/06/15 08:32:06;;;;;;;10.35;9.75;;;23.50;40.60;;;;;;4987683;28;20210;-86
2023/06/15 08:34:32;;;;;;;10.57;9.98;;;23.60;40.20;;;;;;4984483;28;20235;-86
2023/06/15 08:36:58;;;;;;;11.35;10.65;;;23.70;40.20;;;;;;4988938;28;20278;-86
2023/06/15 08:39:24;;;;;;;11.80;10.73;;;24.00;39.40;;;;;;4989599;28;20186;-84
2023/06/15 08:41:51;;;;;;;11.88;10.88;;;23.90;39.40;;;;;;4992433;28;20615;-88
2023/06/15 08:44:18;;;;;;;11.85;10.98;;;24.00;39.00;;;;;;4981048;28;20408;-85
2023/06/15 08:46:45;;;;;;;10.93;10.18;;;23.80;39.10;;;;;;4991421;28;20254;-86
2023/06/15 08:49:12;;;;;;;11.15;10.35;;;23.90;39.70;;;;;;4992799;28;20224;-86
2023/06/15 08:51:38;;;;;;;11.07;10.35;;;24.00;39.60;;;;;;4990348;28;20249;-85
2023/06/15 08:54:06;;;;;;;11.00;10.45;;;24.10;39.00;;;;;;4987837;28;20233;-85
2023/06/15 08:56:31;;;;;;;11.43;10.82;;;24.30;38.60;;;;;;4982372;28;20182;-86
2023/06/15 08:58:57;;;;;;;13.45;12.57;;;24.50;38.60;;;;;;4988753;28;20174;-87
2023/06/15 09:01:25;;;;;;;13.65;12.68;;;24.70;37.90;;;;;;4989285;28;20384;-88
2023/06/15 09:03:52;;;;;;;13.80;12.93;;;25.00;37.40;;;;;;4986392;28;20195;-85
2023/06/15 09:06:22;;;;;;;14.10;13.35;;;24.90;37.10;;;;;;4976550;28;20186;-86
2023/06/15 09:08:48;;;;;;;14.65;13.82;;;25.20;37.20;;;;;;4979521;28;20281;-84
2023/06/15 09:11:16;;;;;;;14.70;14.00;;;25.20;36.50;;;;;;4979683;28;20293;-86
2023/06/15 09:13:43;;;;;;;13.85;13.05;;;25.30;36.20;;;;;;4987618;28;20189;-85
2023/06/15 09:16:09;;;;;;;14.35;13.50;;;25.30;36.50;;;;;;4976965;28;20761;-86
2023/06/15 09:18:51;;;;;;;14.98;14.18;;;25.50;35.70;;;;;;4990822;28;20202;-87
2023/06/15 09:21:18;;;;;;;15.13;14.10;;;25.80;36.00;;;;;;4988615;28;20328;-87
2023/06/15 09:23:46;;;;;;;15.70;14.75;;;25.80;36.10;;;;;;4991627;28;20206;-87
2023/06/15 09:26:26;;;;;;;16.05;15.30;;;26.00;36.20;;;;;;4986026;28;21558;-86
2023/06/15 09:28:56;;;;;;;16.38;15.68;;;26.20;34.70;;;;;;4984932;28;20201;-86
2023/06/15 09:31:32;;;;;;;16.05;15.32;;;26.20;34.90;;;;;;4988469;28;20229;-86
2023/06/15 09:34:03;;;;;;;16.90;16.00;;;26.20;34.80;;;;;;4990470;28;20315;-86
2023/06/15 09:36:46;;;;;;;17.30;16.30;;;26.00;34.60;;;;;;4988408;28;20263;-87
2023/06/15 09:39:13;;;;;;;16.67;15.77;;;26.20;33.70;;;;;;4982476;28;20207;-86
2023/06/15 09:41:58;;;;;;;17.02;16.10;;;26.40;34.40;;;;;;4993495;28;21072;-86
2023/06/15 09:44:25;;;;;;;15.05;14.25;;;26.20;34.30;;;;;;4990997;28;20200;-87
2023/06/15 09:46:53;;;;;;;16.58;15.55;;;25.90;33.70;;;;;;4988705;28;20247;-86
2023/06/15 09:49:27;;;;;;;16.15;15.40;;;26.10;33.80;;;;;;4993115;28;20704;-85
2023/06/15 09:51:54;;;;;;;16.77;15.90;;;26.50;33.50;;;;;;4992405;28;20777;-86
2023/06/15 09:54:22;;;;;;;16.63;15.82;;;26.60;33.00;;;;;;4985267;28;20175;-86
2023/06/15 09:56:53;;;;;;;16.38;15.05;;;26.80;33.40;;;;;;4986803;28;20822;-87
2023/06/15 09:59:20;;;;;;;15.52;14.82;;;27.20;31.20;;;;;;4980109;28;20228;-86
2023/06/15 10:01:48;;;;;;;16.77;16.05;;;27.30;30.80;;;;;;4985025;28;20220;-85
2023/06/15 10:04:20;;;;;;;16.27;15.38;;;27.50;30.60;;;;;;4987649;28;20425;-87
2023/06/15 10:06:50;;;;;;;16.20;15.40;;;27.60;30.70;;;;;;4977972;28;20184;-86
2023/06/15 10:09:24;;;;;;;17.77;16.50;;;27.80;31.30;;;;;;4981688;28;20222;-86
2023/06/15 10:11:52;;;;;;;16.33;15.45;;;27.40;31.30;;;;;;4986195;28;20233;-86
2023/06/15 10:14:43;;;;;;;16.45;15.75;;;27.40;30.20;;;;;;4986368;28;20349;-85
2023/06/15 10:17:13;;;;;;;16.80;15.93;;;27.50;29.00;;;;;;4982861;28;20194;-87
2023/06/15 10:19:43;;;;;;;18.05;17.00;;;27.70;28.50;;;;;;4982303;28;20686;-86
2023/06/15 10:22:16;;;;;;;19.00;18.08;;;27.80;27.90;;;;;;4986082;28;20240;-88
2023/06/15 10:24:44;;;;;;;17.65;16.88;;;28.20;27.40;;;;;;4988410;28;20273;-88
2023/06/15 10:27:11;;;;;;;17.90;16.88;;;28.50;27.40;;;;;;4990354;28;20197;-86
2023/06/15 10:29:54;;;;;;;17.92;17.02;;;28.50;28.40;;;;;;4986979;28;21327;-88
2023/06/15 10:32:39;;;;;;;19.38;18.58;;;28.70;26.90;;;;;;4981872;28;20221;-91
2023/06/15 10:35:18;;;;;;;18.88;17.88;;;28.70;27.30;;;;;;4989455;28;20363;-86
2023/06/15 10:38:09;;;;;;;21.75;20.45;;;28.90;27.20;;;;;;4980885;28;20189;-85
2023/06/15 10:40:49;;;;;;;23.38;22.45;;;29.10;27.20;;;;;;4989472;28;20280;-86
2023/06/15 10:43:19;;;;;;;26.48;25.38;;;29.00;27.10;;;;;;4986573;28;20275;-85
2023/06/15 10:45:46;;;;;;;29.95;28.65;;;29.30;26.80;;;;;;4981328;28;20210;-86
2023/06/15 10:48:21;;;;;;;28.60;27.50;;;29.40;26.30;;;;;;4985330;28;20196;-87
2023/06/15 10:50:51;;;;;;;27.98;26.95;;;29.20;26.60;;;;;;4988332;28;20184;-86
2023/06/15 10:53:34;;;;;;;29.27;27.98;;;29.20;26.90;;;;;;4992209;28;20200;-87
2023/06/15 10:56:00;;;;;;;27.48;26.33;;;29.50;26.30;;;;;;4978713;28;20193;-88
2023/06/15 10:58:27;;;;;;;29.75;28.38;;;29.50;27.20;;;;;;4982777;28;20280;-86
2023/06/15 11:01:19;;;;;;;29.55;28.45;;;29.80;26.50;;;;;;4982947;28;20209;-89
2023/06/15 11:03:48;;;;;;;29.77;28.42;;;29.50;25.90;;;;;;4983559;28;20224;-94
2023/06/15 11:06:21;;;;;;;30.55;29.05;;;29.60;25.90;;;;;;4983502;28;20197;-88
2023/06/15 11:09:00;;;;;;;29.92;28.73;;;29.50;25.70;;;;;;4985680;28;20229;-86
2023/06/15 11:11:31;;;;;;;29.75;28.65;;;29.30;25.30;;;;;;4984371;28;20218;-86
2023/06/15 11:14:06;;;;;;;30.42;29.13;;;29.60;24.70;;;;;;4990916;28;20240;-88
2023/06/15 11:16:36;;;;;;;29.88;28.58;;;29.90;24.20;;;;;;4983888;28;20194;-86
2023/06/15 11:19:14;;;;;;;29.20;27.73;;;29.90;24.40;;;;;;4991964;28;20188;-88
2023/06/15 11:21:44;;;;;;;30.73;28.90;;;30.00;25.50;;;;;;4986413;28;20217;-86
2023/06/15 11:24:13;;;;;;;30.00;28.90;;;29.60;25.60;;;;;;4991079;28;20202;-86
2023/06/15 11:26:40;;;;;;;28.85;27.75;;;29.80;24.60;;;;;;4985879;28;20197;-90
2023/06/15 11:29:07;;;;;;;28.33;27.17;;;29.60;24.50;;;;;;4987183;28;20186;-86
2023/06/15 11:31:34;;;;;;;28.75;27.63;;;29.70;24.80;;;;;;4981086;28;20229;-88
2023/06/15 11:34:00;;;;;;;28.65;27.42;;;29.90;24.00;;;;;;4992348;28;20204;-88
2023/06/15 11:36:29;;;;;;;27.45;26.10;;;30.20;23.90;;;;;;4992276;28;20186;-87
2023/06/15 11:38:54;;;;;;;25.48;24.38;;;30.40;22.70;;;;;;4986939;28;21088;-87
2023/06/15 11:41:20;;;;;;;24.30;23.33;;;30.80;22.80;;;;;;4994210;28;20218;-87
2023/06/15 11:43:49;;;;;;;24.05;22.95;;;31.10;21.90;;;;;;4988307;28;20193;-87
2023/06/15 11:46:20;;;;;;;24.45;23.45;;;31.40;22.20;;;;;;4982201;28;20238;-87
2023/06/15 11:48:47;;;;;;;24.48;23.25;;;31.70;22.70;;;;;;4985886;28;20202;-87
2023/06/15 11:51:15;;;;;;;24.05;23.00;;;31.80;22.80;;;;;;4986630;28;20264;-86
2023/06/15 11:53:46;;;;;;;25.60;24.25;;;31.60;24.10;;;;;;4987358;28;20268;-85
2023/06/15 11:56:16;;;;;;;24.20;23.30;;;31.80;23.10;;;;;;4979829;28;20249;-87
2023/06/15 11:58:49;;;;;;;25.50;24.45;;;31.30;23.70;;;;;;4980937;28;20253;-86
2023/06/15 12:01:16;;;;;;;26.05;24.70;;;31.30;23.60;;;;;;4987128;28;20186;-87
2023/06/15 12:03:49;;;;;;;25.63;24.48;;;31.40;23.90;;;;;;4979961;28;20546;-86
2023/06/15 12:06:17;;;;;;;25.20;24.20;;;31.80;23.30;;;;;;4981376;28;20205;-86
2023/06/15 12:08:50;;;;;;;23.90;22.90;;;31.90;23.10;;;;;;4982499;28;20221;-87
2023/06/15 12:11:21;;;;;;;24.25;23.25;;;32.70;22.90;;;;;;4985826;28;20217;-86
2023/06/15 12:13:48;;;;;;;27.13;25.98;;;33.00;22.70;;;;;;4992189;28;20192;-86
2023/06/15 12:16:15;;;;;;;26.25;24.70;;;33.00;22.90;;;;;;4978116;28;20193;-86
2023/06/15 12:18:44;;;;;;;25.77;24.67;;;32.90;22.90;;;;;;4986706;28;20314;-87
2023/06/15 12:21:17;;;;;;;25.02;23.83;;;32.60;21.80;;;;;;4991508;28;20196;-87
2023/06/15 12:23:48;;;;;;;25.20;24.10;;;32.70;21.90;;;;;;4989663;28;20270;-87
2023/06/15 12:26:17;;;;;;;24.90;23.73;;;33.00;21.80;;;;;;4982808;28;20202;-88
2023/06/15 12:28:50;;;;;;;24.65;23.75;;;32.20;22.80;;;;;;4986420;28;20196;-87
2023/06/15 12:31:16;;;;;;;24.10;23.00;;;31.60;23.40;;;;;;4990330;28;20212;-87
2023/06/15 12:33:42;;;;;;;24.40;23.45;;;31.70;24.00;;;;;;4986002;28;20206;-87
2023/06/15 12:36:14;;;;;;;24.65;23.48;;;32.00;23.00;;;;;;4982167;28;20194;-88
2023/06/15 12:38:42;;;;;;;24.08;22.98;;;31.80;22.50;;;;;;4984958;28;20285;-86
2023/06/15 12:41:18;;;;;;;24.58;23.58;;;32.00;22.60;;;;;;4993710;28;20201;-86
2023/06/15 12:43:45;;;;;;;23.27;22.30;;;31.70;22.60;;;;;;4988036;28;20181;-88